Tiempo atmosférico en la estación meteorológica de Castellote, Teruel (755 m.)



Fecha
DESCASC
Temp. máxima en grados centígrados (hora)
DESCASC
Temp. mínima en grados centígrados (hora)
DESCASC
Temp. media en grados centígrados
DESCASC
Racha de viento máxima en m/sg (hora)
DESCASC
Velocidad máxima media en intervalos de 10 minutos(hora)
DESCASC
Precipitaciones diarias en mm
DESCASC
Precipitaciones de 00:00 a 06:00 en mm
DESCASC
Precipitaciones de 06:00 a 12:00 en mm
DESCASC
Precipitaciones de 12:00 a 18:00 en mm
DESCASC
Precipitaciones de 18:00 a 24:00 en mm
DESCASC
20-09-2018 31.5 (17:20) 15.8 (07:50) 23.7 8.61 (15:30) 5.28 (18:00) 0 0 0 0 0
19-09-2018 28.7 (15:50) 15.8 (08:00) 22.3 10 (16:20) 4.72 (14:10) 0 0 0 0 0
18-09-2018 27.5 (15:50) 15.5 (06:50) 21.5 10 (15:00) 5 (14:00) 1.2 1.2 0 0 0
17-09-2018 28.4 (14:30) 16.2 (08:10) 22.3 9.72 (18:40) 5.56 (17:40) 0.2 0 0 0 0.2
16-09-2018 29.4 (17:20) 15.1 (00:00) 22.3 10.83 (13:50) 5.28 (13:40) 0 0 0 0 0
15-09-2018 25.2 (13:40) 16.7 (00:00) 21 8.61 (14:20) 4.17 (18:30) 0 0 0 0 0
14-09-2018 28.4 (16:20) 14.6 (00:00) 21.5 8.06 (13:30) 3.61 (14:20) 0 0 0 0 0
13-09-2018 29.3 (16:40) 16.8 (00:00) 23 10.28 (14:40) 6.39 (14:30) 0 0 0 0 0
12-09-2018 27.2 (14:40) 16.6 (00:00) 21.9 9.44 (12:30) 6.11 (12:10) 0 0 0 0 0
11-09-2018 25.2 (16:50) 16.3 (00:00) 20.8 8.61 (13:30) 4.72 (14:50) 0 0 0 0 0
10-09-2018 25.5 (18:00) 17.1 (00:00) 21.3 10.28 (15:10) 6.39 (15:50) 0 0 0 0 0
09-09-2018 26.3 (13:40) 16.9 (00:00) 21.6 9.72 (16:40) 4.72 (16:20) 0.6 0 0 0.6 0
08-09-2018 25.7 (16:30) 14.6 (00:00) 20.2 10.83 (12:20) 6.39 (12:30) 0 0 0 0 0
07-09-2018 26.4 (15:40) 14.7 (00:00) 20.5 11.39 (01:40) 7.78 (02:10) 0 0 0 0 0
06-09-2018 23.1 (16:20) 16.1 (00:00) 19.6 10.28 (23:50) 6.39 (00:10) 0 0 0 0 0
05-09-2018 26.8 (12:50) 16.4 (00:00) 21.6 13.33 (13:50) 6.67 (23:59) 2.2 0.6 0 1.6 0
04-09-2018 28.1 (16:30) 15.7 (00:00) 21.9 8.33 (14:40) 4.17 (18:40) 0 0 0 0 0
03-09-2018 28.8 (12:20) 19.2 (00:00) 24 24.72 (20:30) 17.22 (20:30) 1 0 0 0.6 0.4
02-09-2018 31.1 (14:30) 17.3 (00:00) 24.2 10.28 (15:20) 5.83 (15:10) 0 0 0 0 0
01-09-2018 28.7 (17:30) 15.7 (00:00) 22.2 10.83 (15:20) 6.39 (15:00) 0 0 0 0 0
31-08-2018 28.7 (18:00) 17.2 (00:00) 23 9.17 (23:30) 5.28 (15:10) 0 0 0 0 0
30-08-2018 29.3 (17:10) 15.8 (00:00) 22.5 10 (15:50) 4.72 (18:50) 0 0 0 0 0
29-08-2018 28.3 (16:00) 17.5 (00:00) 22.9 18.89 (00:50) 10 (00:40) 5 5 0 0 0
28-08-2018 32.7 (13:10) 20.2 (00:00) 26.5 14.72 (21:30) 7.78 (21:30) 0.2 0 0 0 0.2
27-08-2018 32.7 (18:30) 17.2 (00:00) 25 9.17 (13:50) 3.89 (14:50) 0 0 0 0 0
26-08-2018 28.3 (15:20) 12.9 (00:00) 20.6 12.22 (00:30) 8.06 (01:50) 0 0 0 0 0
25-08-2018 26.1 (14:50) 13.9 (00:00) 20 11.67 (00:50) 7.22 (00:40) 0 0 0 0 0

Gráficas

Temp. máximas Temp. mínimas Temp. medias Precipitaciones Rachas de viento máximas Velocidades máximas media en intervalos de 10 minutos

Datos horarios

Fecha y hora oficial Temperatura (ºC) Velocidad del viento (km/h) Dirección del viento Racha (km/h) Dirección de racha Precipitación (mm) Presión (hPa) Tendencia (hPa) Humedad (%)
2018-09-23 23:00:00 26.1 8 Oeste 12 Noroeste 0 -- -- 38
2018-09-23 22:00:00 26.4 7 Oeste 15 Oeste 0 -- -- 39
2018-09-23 21:00:00 26.8 5 Oeste 9 Oeste 0 -- -- 38
2018-09-23 20:00:00 27.7 4 Este 16 Este 0 -- -- 37
2018-09-23 19:00:00 29.3 12 Este 23 Nordeste 0 -- -- 34
2018-09-23 18:00:00 30.5 8 Sudeste 22 Este 0 -- -- 32
2018-09-23 17:00:00 31.3 7 Este 35 Este 0 -- -- 31
2018-09-23 16:00:00 30.8 21 Este 39 Este 0 -- -- 31
2018-09-23 15:00:00 31 18 Este 33 Este 0 -- -- 31
2018-09-23 14:00:00 30.5 14 Este 31 Nordeste 0 -- -- 32
2018-09-23 13:00:00 29.7 14 Este 26 Este 0 -- -- 33
2018-09-23 12:00:00 28.1 12 Este 17 Este 0 -- -- 36
2018-09-23 11:00:00 25.9 4 Sudeste 9 Este 0 -- -- 41
2018-09-23 10:00:00 22.7 2 Sudeste 10 Nordeste 0 -- -- 48
2018-09-23 09:00:00 19.6 6 Este 10 Este 0 -- -- 54
2018-09-23 08:00:00 17.6 7 Este 10 Este 0 -- -- 60
2018-09-23 07:00:00 17.9 8 Este 12 Este 0 -- -- 60
2018-09-23 06:00:00 18.6 8 Este 12 Nordeste 0 -- -- 58
2018-09-23 05:00:00 18.7 7 Nordeste 10 Este 0 -- -- 57
2018-09-23 04:00:00 20.2 4 Nordeste 13 Nordeste 0 -- -- 53
2018-09-23 03:00:00 20.1 3 Este 15 Este 0 -- -- 53
2018-09-23 02:00:00 20.2 9 Este 14 Este 0 -- -- 53
2018-09-23 01:00:00 20.9 5 Este 9 Sudeste 0 -- -- 50
2018-09-23 00:00:00 22.4 0 Calma 13 Oeste 0 -- -- 46
2018-09-22 23:00:00 24.1 12 Oeste 18 Oeste 0 -- -- 39
2018-09-22 22:00:00 24.5 5 Oeste 20 Noroeste 0 -- -- 38
2018-09-22 21:00:00 25.5 13 Noroeste 23 Noroeste 0 -- -- 37
2018-09-22 20:00:00 26.5 3 Sudoeste 15 Este 0 -- -- 39
2018-09-22 19:00:00 28.4 5 Sudeste 25 Nordeste 0 -- -- 36
2018-09-22 18:00:00 29 9 Este 31 Este 0 -- -- 35
2018-09-22 17:00:00 29.4 13 Este 36 Nordeste 0 -- -- 36
2018-09-22 16:00:00 29.5 16 Este 37 Este 0 -- -- 37
2018-09-22 15:00:00 29.4 24 Este 37 Este 0 -- -- 37
2018-09-22 14:00:00 29 10 Este 24 Nordeste 0 -- -- 38
2018-09-22 13:00:00 27.4 8 Nordeste 26 Nordeste 0 -- -- 39
2018-09-22 12:00:00 25.2 7 Este 15 Este 0 -- -- 45
2018-09-22 11:00:00 23.6 3 Sur 8 Sur 0 -- -- 46
2018-09-22 10:00:00 20.7 4 Este 8 Este 0 -- -- 56
2018-09-22 09:00:00 17.9 3 Este 7 Este 0 -- -- 64
2018-09-22 08:00:00 16.5 3 Este 6 Este 0 -- -- 68
2018-09-22 07:00:00 16.8 4 Este 7 Nordeste 0 -- -- 67
2018-09-22 06:00:00 17.3 5 Este 7 Este 0 -- -- 65
2018-09-22 05:00:00 17.9 3 Sur 5 Sudeste 0 -- -- 62
2018-09-22 04:00:00 18.8 3 Sudeste 18 Noroeste 0 -- -- 59
2018-09-22 03:00:00 20.3 8 Oeste 33 Oeste 0 -- -- 51
2018-09-22 02:00:00 20.8 18 Oeste 27 Sudoeste 0 -- -- 51
2018-09-22 01:00:00 21.3 17 Oeste 28 Oeste 0 -- -- 51
2018-09-22 00:00:00 22.2 7 Oeste 21 Noroeste 0 -- -- 49
2018-09-21 23:00:00 23.4 8 Noroeste 34 Noroeste 0 -- -- 46
2018-09-21 22:00:00 24.1 16 Oeste 36 Norte 0 -- -- 46
2018-09-21 21:00:00 25.6 6 Sudoeste 13 Sur 0 -- -- 42
2018-09-21 20:00:00 26.7 3 Norte 23 Nordeste 0 -- -- 38
2018-09-21 19:00:00 28 10 Este 23 Este 0 -- -- 35
2018-09-21 18:00:00 28.9 13 Este 24 Este 0 -- -- 34
2018-09-21 17:00:00 29.6 8 Este 36 Norte 0 -- -- 33
2018-09-21 16:00:00 30.2 8 Sur 40 Nordeste 0 -- -- 32
2018-09-21 15:00:00 30 18 Este 34 Este 0 -- -- 37
2018-09-21 14:00:00 30.3 10 Este 23 Este 0 -- -- 36
2018-09-21 13:00:00 29.7 11 Nordeste 24 Este 0 -- -- 37
2018-09-21 12:00:00 28.2 6 Nordeste 15 Este 0 -- -- 40
2018-09-21 11:00:00 25.8 7 Este 12 Este 0 -- -- 46
2018-09-21 10:00:00 23 4 Este 9 Este 0 -- -- 53
2018-09-21 09:00:00 20.6 5 Este 10 Nordeste 0 -- -- 61
2018-09-21 08:00:00 19 7 Este 10 Este 0 -- -- 66
2018-09-21 07:00:00 19.4 5 Este 12 Este 0 -- -- 66
2018-09-21 06:00:00 19.2 7 Este 11 Nordeste 0 -- -- 67
2018-09-21 05:00:00 19.6 4 Sudeste 9 Este 0 -- -- 66
2018-09-21 04:00:00 19.8 5 Sudeste 9 Este 0 -- -- 68
2018-09-21 03:00:00 20.2 4 Sudeste 12 Sudeste 0 -- -- 68
2018-09-21 02:00:00 20.4 6 Sudeste 12 Sur 0 -- -- 69
2018-09-21 01:00:00 20.4 4 Sudeste 8 Sudeste 0 -- -- 72
2018-09-21 00:00:00 20.7 3 Sudeste 7 Sudeste 0 -- -- 75
2018-09-20 23:00:00 21.7 4 Sudoeste 8 Sudoeste 0 -- -- 72
2018-09-20 22:00:00 22.3 3 Sudoeste 9 Este 0 -- -- 70
2018-09-20 21:00:00 23 8 Este 12 Sudeste 0 -- -- 67
2018-09-20 20:00:00 24.4 6 Sudeste 17 Sudeste 0 -- -- 63
2018-09-20 19:00:00 26.7 8 Sudeste 21 Este 0 -- -- 57
2018-09-20 18:00:00 29.1 19 Este 30 Este 0 -- -- 45
2018-09-20 17:00:00 30.5 9 Nordeste 26 Este 0 -- -- 30
2018-09-20 16:00:00 30.3 14 Este 31 Este 0 -- -- 33
2018-09-20 15:00:00 30.5 8 Este 27 Este 0 -- -- 33
2018-09-20 14:00:00 29.2 12 Este 20 Este 0 -- -- 37
2018-09-20 13:00:00 27.9 6 Noroeste 16 Este 0 -- -- 38
2018-09-20 12:00:00 26.5 6 Sudeste 11 Este 0 -- -- 42
2018-09-20 11:00:00 23.3 4 Sudeste 8 Este 0 -- -- 51
2018-09-20 10:00:00 20.4 3 Este 7 Este 0 -- -- 61
2018-09-20 09:00:00 17.6 4 Nordeste 8 Este 0 -- -- 70
2018-09-20 08:00:00 15.9 8 Este 9 Este 0 -- -- 76
2018-09-20 07:00:00 16.1 6 Este 9 Este 0 -- -- 76
2018-09-20 06:00:00 16.3 5 Este 12 Este 0 -- -- 76
2018-09-20 05:00:00 16.7 8 Este 10 Nordeste 0 -- -- 75
2018-09-20 04:00:00 17.1 6 Este 10 Este 0 -- -- 75
2018-09-20 03:00:00 17.8 5 Este 10 Este 0 -- -- 75
2018-09-20 02:00:00 18.3 5 Este 8 Sudeste 0 -- -- 77
2018-09-20 01:00:00 19.1 4 Este 7 Este 0 -- -- 77
2018-09-20 00:00:00 20.3 0 Calma 8 Este 0 -- -- 77
2018-09-19 23:00:00 21.2 4 Este 8 Sudoeste 0 -- -- 74
2018-09-19 22:00:00 22.2 3 Sudeste 5 Sudeste 0 -- -- 69
2018-09-19 21:00:00 23.1 3 Sudeste 13 Este 0 -- -- 64
2018-09-19 20:00:00 25.2 14 Este 19 Este 0 -- -- 46
2018-09-19 19:00:00 27.1 4 Este 26 Este 0 -- -- 41
2018-09-19 18:00:00 27.8 10 Este 29 Este 0 -- -- 40
2018-09-19 17:00:00 28.1 12 Nordeste 36 Nordeste 0 -- -- 38
2018-09-19 16:00:00 28.6 15 Este 36 Nordeste 0 -- -- 39
2018-09-19 15:00:00 28.2 8 Norte 30 Este 0 -- -- 41
2018-09-19 14:00:00 27.4 12 Este 31 Este 0 -- -- 43
2018-09-19 13:00:00 27 6 Nordeste 25 Este 0 -- -- 42
2018-09-19 12:00:00 25.2 5 Este 13 Nordeste 0 -- -- 50
2018-09-19 11:00:00 22.8 5 Sudeste 13 Este 0 -- -- 59
2018-09-19 10:00:00 20.3 4 Este 10 Este 0 -- -- 67
2018-09-19 09:00:00 17.6 3 Este 8 Nordeste 0 -- -- 78
2018-09-19 08:00:00 15.8 4 Nordeste 6 Nordeste 0 -- -- 84
2018-09-19 07:00:00 16.5 0 Calma 3 Sudeste 0 -- -- 82
2018-09-19 06:00:00 17 0 Calma 3 Oeste 0 -- -- 81
2018-09-19 05:00:00 17.5 3 Este 9 Este 0 -- -- 80
2018-09-19 04:00:00 17.7 2 Este 8 Este 0 -- -- 78
2018-09-19 03:00:00 18.1 3 Este 6 Este 0 -- -- 81
2018-09-19 02:00:00 18.9 0 Calma 7 Oeste 0 -- -- 80
2018-09-19 01:00:00 19.7 5 Norte 13 Norte 0 -- -- 74
2018-09-19 00:00:00 19.9 0 Calma 6 Noroeste 0 -- -- 75
2018-09-18 23:00:00 20.3 2 Norte 5 Este 0 -- -- 74
2018-09-18 22:00:00 20.7 0 Calma 6 Sur 0 -- -- 71
2018-09-18 21:00:00 21.1 3 Sur 14 Sur 0 -- -- 69
2018-09-18 20:00:00 21.9 8 Sur 18 Sudoeste 0 -- -- 65
2018-09-18 19:00:00 23.6 6 Sur 19 Sur 0 -- -- 58
2018-09-18 18:00:00 24.1 8 Sudeste 25 Este 0 -- -- 56
2018-09-18 17:00:00 27 14 Este 33 Este 0 -- -- 45
2018-09-18 16:00:00 27.1 17 Este 31 Este 0 -- -- 46
2018-09-18 15:00:00 27.1 15 Este 36 Este 0 -- -- 46
2018-09-18 14:00:00 26.4 18 Este 30 Este 0 -- -- 47
2018-09-18 13:00:00 25.3 10 Este 19 Este 0 -- -- 48
2018-09-18 12:00:00 23.8 5 Sudeste 10 Sur 0 -- -- 52
2018-09-18 11:00:00 21 5 Sur 9 Sudoeste 0 -- -- 66
2018-09-18 10:00:00 18 2 Sudoeste 5 Este 0 -- -- 81
2018-09-18 09:00:00 16.2 0 Calma 7 Este 0 -- -- 83
2018-09-18 08:00:00 15.8 3 Nordeste 6 Nordeste 0 -- -- 84
2018-09-18 07:00:00 15.5 3 Este 9 Este 0 -- -- 89
2018-09-18 06:00:00 15.9 4 Este 7 Sur 0 -- -- 89
2018-09-18 05:00:00 16.6 6 Sur 11 Sur 0 -- -- 88
2018-09-18 04:00:00 17.1 0 Calma 9 Este 0 -- -- 80
2018-09-18 03:00:00 16.9 6 Este 18 Norte 0 -- -- 85
2018-09-18 02:00:00 17.3 11 Sudoeste 16 Sudoeste 0.4 -- -- 81
2018-09-18 01:00:00 17.2 5 Sur 34 Sudoeste 0.8 -- -- 83
2018-09-18 00:00:00 18.6 15 Sur 30 Sudoeste 0 -- -- 72
2018-09-17 23:00:00 17.4 7 Sur 22 Sudoeste 0.2 -- -- 80
2018-09-17 22:00:00 20 7 Sur 32 Oeste 0 -- -- 63
2018-09-17 21:00:00 21.4 9 Oeste 19 Noroeste 0 -- -- 62
2018-09-17 20:00:00 21.6 9 Este 29 Sudeste 0 -- -- 72
2018-09-17 19:00:00 22.8 16 Este 35 Este 0 -- -- 67
2018-09-17 18:00:00 24.8 17 Este 34 Este 0 -- -- 59
2018-09-17 17:00:00 24.8 14 Este 26 Este 0 -- -- 60
2018-09-17 16:00:00 25.5 11 Sudeste 33 Este 0 -- -- 52
2018-09-17 15:00:00 27.5 17 Sudeste 29 Sur 0 -- -- 48
2018-09-17 14:00:00 28.1 10 Este 28 Este 0 -- -- 39
2018-09-17 13:00:00 27.5 12 Este 23 Este 0 -- -- 45
2018-09-17 12:00:00 26 6 Este 15 Este 0 -- -- 46
2018-09-17 11:00:00 23.6 6 Sudeste 10 Este 0 -- -- 51
2018-09-17 10:00:00 21 5 Sudeste 12 Sudeste 0 -- -- 61
2018-09-17 09:00:00 18.1 5 Sudeste 8 Sudeste 0 -- -- 69
2018-09-17 08:00:00 16.3 5 Sudeste 10 Sudeste 0 -- -- 75
2018-09-17 07:00:00 16.8 0 Calma 9 Sudeste 0 -- -- 73
2018-09-17 06:00:00 16.9 3 Sur 10 Sudeste 0 -- -- 74
2018-09-17 05:00:00 17.1 0 Calma 12 Sudeste 0 -- -- 73
2018-09-17 04:00:00 17.1 4 Este 9 Sudeste 0 -- -- 77
2018-09-17 03:00:00 18.1 6 Sudeste 15 Sur 0 -- -- 78
2018-09-17 02:00:00 18.7 9 Sur 14 Sur 0 -- -- 82
2018-09-17 01:00:00 19.4 6 Sur 12 Sur 0 -- -- 81
2018-09-17 00:00:00 19.7 7 Este 10 Este 0 -- -- 81
2018-09-16 23:00:00 20.5 6 Sudeste 10 Este 0 -- -- 77
2018-09-16 22:00:00 21.7 6 Este 12 Sudeste 0 -- -- 70
2018-09-16 21:00:00 23 4 Sudeste 15 Sur 0 -- -- 65
2018-09-16 20:00:00 25.7 4 Nordeste 17 Este 0 -- -- 33
2018-09-16 19:00:00 27.4 7 Este 21 Este 0 -- -- 32
2018-09-16 18:00:00 28.5 11 Este 24 Este 0 -- -- 31
2018-09-16 17:00:00 29 10 Este 28 Este 0 -- -- 31
2018-09-16 16:00:00 28.8 10 Nordeste 30 Este 0 -- -- 34
2018-09-16 15:00:00 28 13 Este 31 Este 0 -- -- 36
2018-09-16 14:00:00 27 13 Este 39 Este 0 -- -- 40
2018-09-16 13:00:00 26.5 11 Este 20 Este 0 -- -- 42
2018-09-16 12:00:00 25 8 Este 15 Este 0 -- -- 46
2018-09-16 11:00:00 23.2 3 Este 10 Este 0 -- -- 45
2018-09-16 10:00:00 19.9 3 Sudeste 9 Este 0 -- -- 54
2018-09-16 09:00:00 17.5 2 Nordeste 7 Este 0 -- -- 61
2018-09-16 08:00:00 15.2 5 Este 10 Este 0 -- -- 68
2018-09-16 07:00:00 15.2 6 Este 9 Este 0 -- -- 68
2018-09-16 06:00:00 15.5 4 Este 5 Este 0 -- -- 67
2018-09-16 05:00:00 15.8 3 Este 11 Este 0 -- -- 66
2018-09-16 04:00:00 15.5 9 Este 11 Nordeste 0 -- -- 68
2018-09-16 03:00:00 16.1 6 Este 9 Este 0 -- -- 67
2018-09-16 02:00:00 17 6 Este 9 Este 0 -- -- 65
2018-09-16 01:00:00 17.9 3 Sudeste 7 Oeste 0 -- -- 62
2018-09-16 00:00:00 18.4 2 Sudoeste 8 Sudeste 0 -- -- 60
2018-09-15 23:00:00 19 4 Sur 12 Sudoeste 0 -- -- 59
2018-09-15 22:00:00 20.1 6 Sur 17 Sudoeste 0 -- -- 55
2018-09-15 21:00:00 19.9 10 Sudoeste 20 Sudoeste 0 -- -- 60
2018-09-15 20:00:00 20.7 6 Sudeste 20 Sur 0 -- -- 62
2018-09-15 19:00:00 21.2 11 Sudeste 27 Este 0 -- -- 62
2018-09-15 18:00:00 22.2 11 Sudeste 24 Este 0 -- -- 64
2018-09-15 17:00:00 23.1 12 Este 22 Este 0 -- -- 60
2018-09-15 16:00:00 23.6 9 Este 23 Este 0 -- -- 54
2018-09-15 15:00:00 23.5 10 Nordeste 31 Este 0 -- -- 54
2018-09-15 14:00:00 24.7 12 Este 29 Este 0 -- -- 50
2018-09-15 13:00:00 24.3 10 Este 22 Este 0 -- -- 51
2018-09-15 12:00:00 23 9 Este 23 Este 0 -- -- 54
2018-09-15 11:00:00 20.5 8 Este 13 Este 0 -- -- 62
2018-09-15 10:00:00 17.5 0 Calma 9 Norte 0 -- -- 74
2018-09-15 09:00:00 17.1 5 Norte 13 Norte 0 -- -- 73
2018-09-15 08:00:00 16.9 0 Calma 5 Norte 0 -- -- 73
2018-09-15 07:00:00 17.1 0 Calma 4 Nordeste 0 -- -- 75
2018-09-15 06:00:00 17.1 0 Calma 5 Este 0 -- -- 74
2018-09-15 05:00:00 17.6 0 Calma 4 Este 0 -- -- 73
2018-09-15 04:00:00 18.4 0 Calma 6 Norte 0 -- -- 70
2018-09-15 03:00:00 18.7 4 Norte 11 Norte 0 -- -- 66
2018-09-15 02:00:00 19.1 3 Sudeste 7 Noroeste 0 -- -- 68
2018-09-15 01:00:00 19.8 0 Calma 10 Noroeste 0 -- -- 64
2018-09-15 00:00:00 20.4 5 Este 6 Este 0 -- -- 64
2018-09-14 23:00:00 21.2 0 Calma 4 Sudeste 0 -- -- 68
2018-09-14 22:00:00 22 4 Este 9 Este 0 -- -- 68
2018-09-14 21:00:00 22.9 3 Nordeste 10 Norte 0 -- -- 43
2018-09-14 20:00:00 24.3 5 Norte 17 Este 0 -- -- 41
2018-09-14 19:00:00 25.1 9 Este 23 Norte 0 -- -- 39
2018-09-14 18:00:00 27 7 Este 25 Norte 0 -- -- 37
2018-09-14 17:00:00 27.7 9 Nordeste 22 Norte 0 -- -- 37
2018-09-14 16:00:00 27.7 11 Nordeste 25 Este 0 -- -- 38
2018-09-14 15:00:00 26.9 10 Este 24 Este 0 -- -- 40
2018-09-14 14:00:00 25.3 7 Nordeste 29 Este 0 -- -- 44
2018-09-14 13:00:00 24.3 9 Este 21 Este 0 -- -- 46
2018-09-14 12:00:00 21.8 4 Norte 13 Este 0 -- -- 54
2018-09-14 11:00:00 20 6 Norte 13 Noroeste 0 -- -- 59
2018-09-14 10:00:00 18.2 4 Este 9 Este 0 -- -- 63
2018-09-14 09:00:00 16.3 3 Este 5 Este 0 -- -- 69
2018-09-14 08:00:00 14.6 5 Este 8 Este 0 -- -- 75
2018-09-14 07:00:00 15.1 4 Este 5 Este 0 -- -- 72
2018-09-14 06:00:00 15.5 4 Este 5 Este 0 -- -- 70
2018-09-14 05:00:00 15.8 0 Calma 8 Este 0 -- -- 69
2018-09-14 04:00:00 16.4 4 Nordeste 9 Sudeste 0 -- -- 67
2018-09-14 03:00:00 16.7 5 Este 7 Este 0 -- -- 65
2018-09-14 02:00:00 17.6 4 Sudeste 12 Sudoeste 0 -- -- 61
2018-09-14 01:00:00 19.3 4 Oeste 10 Sur 0 -- -- 60
2018-09-14 00:00:00 19.6 3 Sudoeste 10 Sudoeste 0 -- -- 55
2018-09-13 23:00:00 20.6 4 Sur 11 Noroeste 0 -- -- 52
2018-09-13 22:00:00 22.1 9 Noroeste 16 Noroeste 0 -- -- 51
2018-09-13 21:00:00 22.9 5 Noroeste 9 Noroeste 0 -- -- 46
2018-09-13 20:00:00 24.5 5 Nordeste 21 Sudoeste 0 -- -- 42
2018-09-13 19:00:00 26.4 9 Sur 33 Oeste 0 -- -- 39
2018-09-13 18:00:00 27.9 13 Noroeste 23 Oeste 0 -- -- 37
2018-09-13 17:00:00 28.7 11 Oeste 27 Noroeste 0 -- -- 29
2018-09-13 16:00:00 28.1 11 Oeste 35 Este 0 -- -- 30
2018-09-13 15:00:00 26.1 18 Este 37 Este 0 -- -- 45
2018-09-13 14:00:00 25.5 19 Este 32 Este 0 -- -- 49
2018-09-13 13:00:00 24.4 12 Este 29 Este 0 -- -- 50
2018-09-13 12:00:00 21.9 7 Oeste 23 Noroeste 0 -- -- 60
2018-09-13 11:00:00 20.2 8 Noroeste 22 Noroeste 0 -- -- 67
2018-09-13 10:00:00 18 12 Oeste 26 Oeste 0 -- -- 76
2018-09-13 09:00:00 16.9 6 Oeste 18 Oeste 0 -- -- 82
2018-09-13 08:00:00 16.9 5 Oeste 18 Norte 0 -- -- 81
2018-09-13 07:00:00 17.1 4 Este 13 Norte 0 -- -- 80
2018-09-13 06:00:00 17.3 7 Este 15 Oeste 0 -- -- 76
2018-09-13 05:00:00 18.4 10 Oeste 24 Noroeste 0 -- -- 69
2018-09-13 04:00:00 19.5 5 Noroeste 18 Oeste 0 -- -- 59
2018-09-13 03:00:00 20.3 10 Oeste 23 Oeste 0 -- -- 53
2018-09-13 02:00:00 20 8 Oeste 20 Noroeste 0 -- -- 54
2018-09-13 01:00:00 19.3 0 Calma 12 Noroeste 0 -- -- 69
2018-09-13 00:00:00 19.8 4 Sudeste 20 Oeste 0 -- -- 68
2018-09-12 23:00:00 20.5 5 Oeste 19 Oeste 0 -- -- 65
2018-09-12 22:00:00 21 7 Norte 18 Noroeste 0 -- -- 64
2018-09-12 21:00:00 22.4 4 Oeste 16 Oeste 0 -- -- 59
2018-09-12 20:00:00 24.3 6 Noroeste 27 Noroeste 0 -- -- 52
2018-09-12 19:00:00 26 12 Oeste 29 Sudoeste 0 -- -- 48
2018-09-12 18:00:00 25.5 12 Este 28 Nordeste 0 -- -- 48
2018-09-12 17:00:00 25.3 13 Este 28 Este 0 -- -- 49
2018-09-12 16:00:00 25.4 17 Este 29 Este 0 -- -- 49
2018-09-12 15:00:00 27.2 7 Sudeste 19 Nordeste 0 -- -- 44
2018-09-12 14:00:00 25.7 7 Sudeste 26 Este 0 -- -- 48
2018-09-12 13:00:00 25.3 14 Este 34 Este 0 -- -- 48
2018-09-12 12:00:00 24.9 15 Este 24 Este 0 -- -- 47
2018-09-12 11:00:00 22.6 6 Oeste 18 Sur 0 -- -- 50
2018-09-12 10:00:00 20.6 4 Oeste 8 Este 0 -- -- 64
2018-09-12 09:00:00 17.7 3 Sudeste 7 Sudeste 0 -- -- 76
2018-09-12 08:00:00 17 0 Calma 9 Este 0 -- -- 77
2018-09-12 07:00:00 16.7 2 Sur 8 Sudeste 0 -- -- 80
2018-09-12 06:00:00 17.3 4 Sudeste 5 Este 0 -- -- 78
2018-09-12 05:00:00 17.8 2 Sur 5 Sudoeste 0 -- -- 75
2018-09-12 04:00:00 17.8 4 Sudoeste 8 Sudeste 0 -- -- 74
2018-09-12 03:00:00 18.5 4 Sudeste 12 Sudoeste 0 -- -- 71
2018-09-12 02:00:00 18.9 4 Sudeste 13 Sudeste 0 -- -- 69
2018-09-12 01:00:00 19.2 7 Este 12 Este 0 -- -- 68
2018-09-12 00:00:00 19.7 3 Sur 10 Sudeste 0 -- -- 68
2018-09-11 23:00:00 19.9 8 Sur 18 Este 0 -- -- 69
2018-09-11 22:00:00 20.3 8 Sur 16 Sur 0 -- -- 70
2018-09-11 21:00:00 20.9 9 Sur 23 Sudoeste 0 -- -- 69
2018-09-11 20:00:00 22.1 9 Sudeste 22 Sudeste 0 -- -- 64
2018-09-11 19:00:00 23.6 14 Este 25 Este 0 -- -- 56
2018-09-11 18:00:00 24.3 10 Sudeste 19 Este 0 -- -- 53
2018-09-11 17:00:00 25 16 Este 24 Este 0 -- -- 51
2018-09-11 16:00:00 24.4 8 Este 26 Este 0 -- -- 53
2018-09-11 15:00:00 23.6 16 Este 28 Este 0 -- -- 55
2018-09-11 14:00:00 23.6 12 Este 31 Este 0 -- -- 55
2018-09-11 13:00:00 23.5 8 Sudoeste 23 Este 0 -- -- 53
2018-09-11 12:00:00 22.9 12 Este 22 Este 0 -- -- 55
2018-09-11 11:00:00 22.3 5 Norte 14 Nordeste 0 -- -- 56
2018-09-11 10:00:00 19.4 2 Nordeste 8 Noroeste 0 -- -- 64
2018-09-11 09:00:00 16.5 0 Calma 5 Este 0 -- -- 71
2018-09-11 08:00:00 16.3 3 Este 4 Sudeste 0 -- -- 71
2018-09-11 07:00:00 16.4 2 Este 8 Este 0 -- -- 72
2018-09-11 06:00:00 16.7 2 Sudeste 4 Este 0 -- -- 70
2018-09-11 05:00:00 17.1 0 Calma 5 Sudeste 0 -- -- 71
2018-09-11 04:00:00 17.4 0 Calma 8 Sudeste 0 -- -- 71
2018-09-11 03:00:00 17.9 2 Este 5 Sudeste 0 -- -- 70
2018-09-11 02:00:00 18.6 3 Sudeste 9 Sudeste 0 -- -- 66
2018-09-11 01:00:00 19.2 4 Sudoeste 10 Sur 0 -- -- 61
2018-09-11 00:00:00 19 3 Sur 7 Sur 0 -- -- 71
2018-09-10 23:00:00 19.5 3 Sudeste 6 Sudeste 0 -- -- 71
2018-09-10 22:00:00 19.9 4 Sudeste 16 Sudoeste 0 -- -- 70
2018-09-10 21:00:00 20.4 6 Sur 17 Sudoeste 0 -- -- 67
2018-09-10 20:00:00 21.2 6 Sur 16 Sur 0 -- -- 62
2018-09-10 19:00:00 22.7 7 Sur 34 Este 0 -- -- 57
2018-09-10 18:00:00 25.5 5 Sur 24 Este 0 -- -- 45
2018-09-10 17:00:00 24 6 Nordeste 23 Este 0 -- -- 52
2018-09-10 16:00:00 23.4 22 Este 37 Este 0 -- -- 54
2018-09-10 15:00:00 25 12 Este 33 Este 0 -- -- 51
2018-09-10 14:00:00 23.9 15 Este 32 Este 0 -- -- 54
2018-09-10 13:00:00 23.6 5 Nordeste 13 Norte 0 -- -- 54
2018-09-10 12:00:00 21.4 5 Noroeste 10 Noroeste 0 -- -- 65
2018-09-10 11:00:00 18.6 5 Este 13 Nordeste 0 -- -- 78
2018-09-10 10:00:00 17.9 4 Nordeste 11 Oeste 0 -- -- 81
2018-09-10 09:00:00 17.1 0 Calma 17 Oeste 0 -- -- 84
2018-09-10 08:00:00 17.1 6 Oeste 13 Oeste 0 -- -- 83
2018-09-10 07:00:00 17.4 6 Noroeste 13 Noroeste 0 -- -- 81
2018-09-10 06:00:00 17.4 5 Sudoeste 19 Oeste 0 -- -- 81
2018-09-10 05:00:00 17.7 8 Oeste 21 Noroeste 0 -- -- 78
2018-09-10 04:00:00 17.5 5 Sudoeste 17 Oeste 0 -- -- 80
2018-09-10 03:00:00 17.8 11 Noroeste 22 Oeste 0 -- -- 74
2018-09-10 02:00:00 18.1 9 Oeste 22 Oeste 0 -- -- 74
2018-09-10 01:00:00 18.7 0 Calma 9 Este 0 -- -- 79
2018-09-10 00:00:00 19.1 5 Este 21 Oeste 0 -- -- 77
2018-09-09 23:00:00 19.2 6 Sudoeste 8 Sudoeste 0 -- -- 75
2018-09-09 22:00:00 19.3 4 Este 13 Este 0 -- -- 74
2018-09-09 21:00:00 20.3 9 Este 16 Sudoeste 0 -- -- 76
2018-09-09 20:00:00 20.7 5 Sur 18 Sur 0 -- -- 76
2018-09-09 19:00:00 20.9 6 Sudoeste 13 Sur 0 -- -- 70
2018-09-09 18:00:00 20.8 3 Sudeste 15 Sudoeste 0 -- -- 61
2018-09-09 17:00:00 20.8 4 Sur 35 Este 0.6 -- -- 69
2018-09-09 16:00:00 24.3 8 Este 27 Este 0 -- -- 55
2018-09-09 15:00:00 26.1 9 Este 31 Este 0 -- -- 49
2018-09-09 14:00:00 26.1 8 Sudeste 28 Este 0 -- -- 47
2018-09-09 13:00:00 25.4 13 Este 27 Nordeste 0 -- -- 52
2018-09-09 12:00:00 24.2 6 Este 21 Este 0 -- -- 57
2018-09-09 11:00:00 22.2 5 Este 10 Sudeste 0 -- -- 64
2018-09-09 10:00:00 18.9 2 Oeste 10 Norte 0 -- -- 75
2018-09-09 09:00:00 18.1 6 Nordeste 13 Nordeste 0 -- -- 78
2018-09-09 08:00:00 16.9 5 Oeste 6 Oeste 0 -- -- 82
2018-09-09 07:00:00 17.9 2 Nordeste 6 Oeste 0 -- -- 78
2018-09-09 06:00:00 18.5 4 Oeste 8 Oeste 0 -- -- 75
2018-09-09 05:00:00 18.9 3 Oeste 15 Noroeste 0 -- -- 73
2018-09-09 04:00:00 19.5 6 Oeste 17 Noroeste 0 -- -- 70
2018-09-09 03:00:00 19.4 3 Sudoeste 12 Sudoeste 0 -- -- 72
2018-09-09 02:00:00 19.4 4 Sudeste 13 Sudeste 0 -- -- 73
2018-09-09 01:00:00 19.9 8 Sur 14 Sur 0 -- -- 71
2018-09-09 00:00:00 20.1 8 Sur 20 Sur 0 -- -- 72
2018-09-08 23:00:00 20.6 8 Sudeste 19 Sudeste 0 -- -- 69
2018-09-08 22:00:00 21.3 9 Sur 17 Sur 0 -- -- 64
2018-09-08 21:00:00 21.5 6 Sudeste 24 Sudeste 0 -- -- 64
2018-09-08 20:00:00 22.6 6 Sudeste 22 Este 0 -- -- 59
2018-09-08 19:00:00 23.9 10 Este 26 Sudeste 0 -- -- 52
2018-09-08 18:00:00 25.4 14 Sudeste 29 Este 0 -- -- 49
2018-09-08 17:00:00 25.1 13 Sudeste 32 Este 0 -- -- 52
2018-09-08 16:00:00 24.9 19 Este 34 Este 0 -- -- 55
2018-09-08 15:00:00 24.4 13 Este 33 Nordeste 0 -- -- 53
2018-09-08 14:00:00 24.5 15 Sudeste 37 Sudeste 0 -- -- 51
2018-09-08 13:00:00 24.8 16 Sudeste 39 Este 0 -- -- 50
2018-09-08 12:00:00 24.1 17 Este 28 Este 0 -- -- 55
2018-09-08 11:00:00 21.8 8 Sudeste 14 Sur 0 -- -- 62
2018-09-08 10:00:00 19.5 3 Sudeste 9 Sudeste 0 -- -- 66
2018-09-08 09:00:00 16.3 2 Este 8 Este 0 -- -- 80
2018-09-08 08:00:00 14.6 3 Este 8 Este 0 -- -- 86
2018-09-08 07:00:00 15.1 3 Este 6 Este 0 -- -- 85
2018-09-08 06:00:00 15.7 3 Este 7 Este 0 -- -- 84
2018-09-08 05:00:00 16.6 3 Este 6 Este 0 -- -- 82
2018-09-08 04:00:00 16.9 3 Sur 6 Este 0 -- -- 82
2018-09-08 03:00:00 17.5 0 Calma 5 Este 0 -- -- 81
2018-09-08 02:00:00 17.7 0 Calma 4 Este 0 -- -- 81
2018-09-08 01:00:00 18.6 2 Sur 6 Sudeste 0 -- -- 77
2018-09-08 00:00:00 19.2 4 Sur 6 Sur 0 -- -- 75
2018-09-07 23:00:00 19.6 3 Sur 11 Sudeste 0 -- -- 73
2018-09-07 22:00:00 20.1 4 Sudeste 15 Sudeste 0 -- -- 71
2018-09-07 21:00:00 20.4 7 Sudeste 15 Este 0 -- -- 68
2018-09-07 20:00:00 21.4 8 Sudeste 25 Nordeste 0 -- -- 65
2018-09-07 19:00:00 21.9 9 Este 16 Nordeste 0 -- -- 58
2018-09-07 18:00:00 22.2 9 Norte 28 Nordeste 0 -- -- 54
2018-09-07 17:00:00 24.1 11 Este 30 Este 0 -- -- 48
2018-09-07 16:00:00 25.8 11 Este 25 Este 0 -- -- 43
2018-09-07 15:00:00 24.4 10 Este 25 Nordeste 0 -- -- 45
2018-09-07 14:00:00 23.5 10 Este 31 Este 0 -- -- 48
2018-09-07 13:00:00 21.4 15 Este 32 Este 0 -- -- 53
2018-09-07 12:00:00 21.4 8 Este 18 Este 0 -- -- 52
2018-09-07 11:00:00 19.2 8 Noroeste 23 Oeste 0 -- -- 58
2018-09-07 10:00:00 17.6 6 Oeste 16 Oeste 0 -- -- 63
2018-09-07 09:00:00 16.1 4 Sur 22 Noroeste 0 -- -- 69
2018-09-07 08:00:00 14.7 4 Oeste 17 Noroeste 0 -- -- 75
2018-09-07 07:00:00 15.1 5 Sudoeste 18 Sur 0 -- -- 72
2018-09-07 06:00:00 15.3 0 Calma 23 Sudoeste 0 -- -- 70
2018-09-07 05:00:00 15.7 5 Sudoeste 24 Sur 0 -- -- 68
2018-09-07 04:00:00 15.9 10 Este 35 Sudoeste 0 -- -- 67
2018-09-07 03:00:00 16.4 18 Oeste 40 Noroeste 0 -- -- 67
2018-09-07 02:00:00 17 26 Oeste 41 Noroeste 0 -- -- 64
2018-09-07 01:00:00 17.9 22 Oeste 41 Oeste 0 -- -- 60
2018-09-07 00:00:00 18.7 23 Oeste 37 Oeste 0 -- -- 60
2018-09-06 23:00:00 19.6 13 Oeste 27 Noroeste 0 -- -- 60
2018-09-06 22:00:00 20 8 Oeste 27 Oeste 0 -- -- 57
2018-09-06 21:00:00 20.7 9 Oeste 19 Oeste 0 -- -- 59
2018-09-06 20:00:00 21.7 5 Sur 15 Nordeste 0 -- -- 56
2018-09-06 19:00:00 22.7 5 Sudeste 12 Este 0 -- -- 55
2018-09-06 18:00:00 21.8 8 Este 22 Este 0 -- -- 59
2018-09-06 17:00:00 22.7 9 Este 23 Este 0 -- -- 56
2018-09-06 16:00:00 22.5 6 Nordeste 14 Oeste 0 -- -- 58
2018-09-06 15:00:00 19.3 9 Este 20 Este 0 -- -- 69
2018-09-06 14:00:00 19.2 13 Este 19 Este 0 -- -- 71
2018-09-06 13:00:00 19.3 3 Sur 14 Noroeste 0 -- -- 68
2018-09-06 12:00:00 18.4 8 Oeste 16 Oeste 0 -- -- 69
2018-09-06 11:00:00 17.9 5 Sudoeste 13 Este 0 -- -- 74
2018-09-06 10:00:00 17 4 Este 9 Oeste 0 -- -- 82
2018-09-06 09:00:00 16.4 5 Sudoeste 7 Noroeste 0 -- -- 83
2018-09-06 08:00:00 16.2 2 Oeste 23 Sudoeste 0 -- -- 85
2018-09-06 07:00:00 16.1 5 Sudoeste 21 Oeste 0 -- -- 83
2018-09-06 06:00:00 16.3 12 Oeste 23 Oeste 0 -- -- 80
2018-09-06 05:00:00 16.3 5 Noroeste 12 Norte 0 -- -- 83
2018-09-06 04:00:00 16.4 3 Nordeste 17 Norte 0 -- -- 86
2018-09-06 03:00:00 17.3 4 Nordeste 8 Oeste 0 -- -- 82
2018-09-06 02:00:00 17.8 6 Oeste 19 Oeste 0 -- -- 79
2018-09-06 01:00:00 17.9 11 Oeste 31 Noroeste 0 -- -- 80
2018-09-06 00:00:00 18.3 24 Noroeste 41 Oeste 0 -- -- 82
2018-09-05 23:00:00 19.1 5 Sur 17 Sur 0 -- -- 70
2018-09-05 22:00:00 19.2 8 Sudoeste 20 Sudoeste 0 -- -- 68
2018-09-05 21:00:00 19.4 8 Sur 19 Sur 0 -- -- 71
2018-09-05 20:00:00 20.4 6 Sur 14 Sudeste 0 -- -- 64
2018-09-05 19:00:00 21 4 Nordeste 30 Este 0 -- -- 64
2018-09-05 18:00:00 21.2 8 Este 38 Nordeste 0 -- -- 71
2018-09-05 17:00:00 23.3 15 Este 29 Este 0 -- -- 57
2018-09-05 16:00:00 23.3 7 Nordeste 26 Nordeste 0.2 -- -- 71
2018-09-05 15:00:00 23.3 12 Nordeste 32 Este 0 -- -- 62
2018-09-05 14:00:00 20.2 9 Este 48 Sur 1.4 -- -- 86
2018-09-05 13:00:00 26.1 11 Nordeste 23 Este 0 -- -- 56
2018-09-05 12:00:00 25.3 7 Este 16 Este 0 -- -- 58
2018-09-05 11:00:00 22.6 4 Sur 8 Sur 0 -- -- 69
2018-09-05 10:00:00 19.8 2 Sur 8 Sudeste 0 -- -- 80
2018-09-05 09:00:00 18 6 Sudoeste 10 Sudoeste 0 -- -- 86
2018-09-05 08:00:00 16.4 3 Sudoeste 5 Sudoeste 0 -- -- 92
2018-09-05 07:00:00 17.1 3 Sudeste 4 Sudeste 0 -- -- 89
2018-09-05 06:00:00 17.4 2 Oeste 7 Sur 0.2 -- -- 88
2018-09-05 05:00:00 17.7 4 Oeste 19 Noroeste 0.4 -- -- 87
2018-09-05 04:00:00 19.5 15 Oeste 22 Oeste 0 -- -- 73
2018-09-05 03:00:00 19.2 7 Oeste 11 Oeste 0 -- -- 82
2018-09-05 02:00:00 19.3 7 Sudeste 13 Noroeste 0 -- -- 81
2018-09-05 01:00:00 19.8 6 Sur 16 Sur 0 -- -- 81
2018-09-05 00:00:00 19.9 9 Sur 15 Sur 0 -- -- 80
2018-09-04 23:00:00 19.8 6 Sudoeste 9 Sudoeste 0 -- -- 81
2018-09-04 22:00:00 21.1 4 Sudeste 9 Sudeste 0 -- -- 77
2018-09-04 21:00:00 22.4 3 Este 8 Sudeste 0 -- -- 72
2018-09-04 20:00:00 23.5 5 Oeste 20 Este 0 -- -- 65
2018-09-04 19:00:00 24.3 7 Sudeste 26 Este 0 -- -- 59
2018-09-04 18:00:00 26.1 10 Este 24 Este 0 -- -- 52
2018-09-04 17:00:00 26.7 14 Este 22 Este 0 -- -- 48
2018-09-04 16:00:00 27 13 Sudeste 28 Sudeste 0 -- -- 47
2018-09-04 15:00:00 27.3 12 Nordeste 30 Nordeste 0 -- -- 44
2018-09-04 14:00:00 25.9 14 Nordeste 27 Nordeste 0 -- -- 43
2018-09-04 13:00:00 25.4 10 Norte 22 Norte 0 -- -- 45
2018-09-04 12:00:00 23.8 6 Norte 17 Norte 0 -- -- 47
2018-09-04 11:00:00 21.5 8 Nordeste 18 Nordeste 0 -- -- 52
2018-09-04 10:00:00 20.3 6 Este 9 Este 0 -- -- 55
2018-09-04 09:00:00 17.7 0 Calma 4 Este 0 -- -- 65
2018-09-04 08:00:00 15.7 0 Calma 6 Este 0 -- -- 68
2018-09-04 07:00:00 16.5 3 Oeste 6 Este 0 -- -- 65
2018-09-04 06:00:00 16.5 0 Calma 8 Sudeste 0 -- -- 65
2018-09-04 05:00:00 17.4 4 Este 8 Este 0 -- -- 61
2018-09-04 04:00:00 17.6 4 Este 22 Oeste 0 -- -- 62
2018-09-04 03:00:00 18.5 13 Norte 22 Noroeste 0 -- -- 54
2018-09-04 02:00:00 19.8 4 Este 6 Nordeste 0 -- -- 51
2018-09-04 01:00:00 20.5 0 Calma 9 Oeste 0 -- -- 48
2018-09-04 00:00:00 20.7 5 Sudeste 12 Este 0 -- -- 50
2018-09-03 23:00:00 21.4 7 Este 43 Sudoeste 0 -- -- 46
2018-09-03 22:00:00 20.9 16 Sudoeste 55 Este 0 -- -- 49
2018-09-03 21:00:00 22.1 17 Sudeste 89 Sudoeste 0.2 -- -- 49
2018-09-03 20:00:00 21.2 42 Sudoeste 78 Sur 0.2 -- -- 53
2018-09-03 19:00:00 26.4 6 Sur 28 Este 0 -- -- 55
2018-09-03 18:00:00 27.9 9 Este 21 Este 0 -- -- 54
2018-09-03 17:00:00 26.8 11 Este 30 Este 0 -- -- 50
2018-09-03 16:00:00 26.2 6 Este 21 Este 0 -- -- 53
2018-09-03 15:00:00 25.4 5 Sudoeste 13 Sudoeste 0 -- -- 57
2018-09-03 14:00:00 26.4 8 Este 19 Este 0.2 -- -- 52
2018-09-03 13:00:00 24.6 5 Norte 52 Oeste 0.4 -- -- 56
2018-09-03 12:00:00 28 10 Sur 22 Sur 0 -- -- 42
2018-09-03 11:00:00 25.7 11 Sur 18 Sur 0 -- -- 44
2018-09-03 10:00:00 22.5 10 Sur 37 Norte 0 -- -- 52
2018-09-03 09:00:00 20.8 23 Noroeste 54 Noroeste 0 -- -- 52
2018-09-03 08:00:00 19.4 5 Oeste 11 Noroeste 0 -- -- 72
2018-09-03 07:00:00 20.5 4 Sur 33 Oeste 0 -- -- 68
2018-09-03 06:00:00 20.1 4 Sudeste 6 Sudeste 0 -- -- 72
2018-09-03 05:00:00 20.7 2 Este 8 Este 0 -- -- 69
2018-09-03 04:00:00 20.7 5 Sudeste 11 Sudeste 0 -- -- 67
2018-09-03 03:00:00 21.4 6 Este 9 Sudeste 0 -- -- 67
2018-09-03 02:00:00 22.3 4 Sudeste 8 Sur 0 -- -- 63
2018-09-03 01:00:00 22.9 3 Sudeste 7 Sudeste 0 -- -- 63
2018-09-03 00:00:00 23.6 2 Sudoeste 6 Sudeste 0 -- -- 67
2018-09-02 23:00:00 24.4 3 Sudeste 7 Oeste 0 -- -- 65
2018-09-02 22:00:00 25.4 4 Sudeste 14 Este 0 -- -- 50
2018-09-02 21:00:00 26.4 0 Calma 6 Este 0 -- -- 41
2018-09-02 20:00:00 27.3 4 Sudeste 14 Nordeste 0 -- -- 40
2018-09-02 19:00:00 27.5 8 Este 22 Nordeste 0 -- -- 39
2018-09-02 18:00:00 28 7 Este 21 Este 0 -- -- 37
2018-09-02 17:00:00 28.6 7 Nordeste 36 Este 0 -- -- 35
2018-09-02 16:00:00 31.1 12 Nordeste 37 Este 0 -- -- 32
2018-09-02 15:00:00 30.9 14 Este 31 Este 0 -- -- 32
2018-09-02 14:00:00 29.5 15 Este 35 Este 0 -- -- 33
2018-09-02 13:00:00 28.8 4 Este 14 Este 0 -- -- 33
2018-09-02 12:00:00 27.2 7 Este 13 Este 0 -- -- 32
2018-09-02 11:00:00 24.7 5 Sudeste 10 Sur 0 -- -- 38
2018-09-02 10:00:00 21.9 4 Sudeste 8 Este 0 -- -- 55
2018-09-02 09:00:00 19.3 3 Este 6 Este 0 -- -- 67
2018-09-02 08:00:00 17.3 2 Sudeste 4 Sudeste 0 -- -- 73
2018-09-02 07:00:00 18.1 0 Calma 9 Norte 0 -- -- 70
2018-09-02 06:00:00 18.2 3 Nordeste 8 Nordeste 0 -- -- 63
2018-09-02 05:00:00 18.9 3 Sudeste 5 Sudeste 0 -- -- 68
2018-09-02 04:00:00 19.5 0 Calma 7 Este 0 -- -- 67
2018-09-02 03:00:00 20.2 3 Este 6 Este 0 -- -- 62
2018-09-02 02:00:00 20.6 4 Este 9 Este 0 -- -- 60
2018-09-02 01:00:00 20.8 8 Este 9 Este 0 -- -- 63
2018-09-02 00:00:00 21.9 3 Sudoeste 6 Sur 0 -- -- 70
2018-09-01 23:00:00 22.9 3 Sur 5 Sur 0 -- -- 69
2018-09-01 22:00:00 23.6 3 Este 10 Este 0 -- -- 64
2018-09-01 21:00:00 24.9 2 Nordeste 18 Este 0 -- -- 41
2018-09-01 20:00:00 26.1 14 Este 25 Este 0 -- -- 39
2018-09-01 19:00:00 27.5 15 Este 32 Este 0 -- -- 37
2018-09-01 18:00:00 28.4 13 Este 34 Este 0 -- -- 35
2018-09-01 17:00:00 28.4 20 Este 37 Este 0 -- -- 38
2018-09-01 16:00:00 28 21 Este 39 Este 0 -- -- 41
2018-09-01 15:00:00 27.7 23 Este 34 Este 0 -- -- 41
2018-09-01 14:00:00 27.7 10 Nordeste 32 Este 0 -- -- 40
2018-09-01 13:00:00 26.3 15 Este 26 Este 0 -- -- 43
2018-09-01 12:00:00 24.4 8 Este 20 Este 0 -- -- 49
2018-09-01 11:00:00 22.3 9 Este 17 Este 0 -- -- 54
2018-09-01 10:00:00 20.4 8 Este 14 Este 0 -- -- 59
2018-09-01 09:00:00 17.7 0 Calma 5 Este 0 -- -- 68
2018-09-01 08:00:00 15.8 2 Sudeste 5 Sudeste 0 -- -- 76
2018-09-01 07:00:00 16 3 Sudeste 6 Sudeste 0 -- -- 73
2018-09-01 06:00:00 16.6 2 Nordeste 9 Este 0 -- -- 72
2018-09-01 05:00:00 17.4 3 Este 7 Oeste 0 -- -- 69
2018-09-01 04:00:00 18.9 7 Noroeste 15 Noroeste 0 -- -- 65
2018-09-01 03:00:00 19 3 Sudoeste 13 Sudoeste 0 -- -- 63
2018-09-01 02:00:00 19.7 7 Sudoeste 18 Sudoeste 0 -- -- 62
2018-09-01 01:00:00 20.5 7 Sudoeste 29 Oeste 0 -- -- 58
2018-09-01 00:00:00 21.4 12 Oeste 33 Noroeste 0 -- -- 54
2018-08-31 23:00:00 22.9 5 Noroeste 22 Noroeste 0 -- -- 44
2018-08-31 22:00:00 23.6 14 Noroeste 20 Noroeste 0 -- -- 42
2018-08-31 21:00:00 24.4 4 Nordeste 14 Nordeste 0 -- -- 41
2018-08-31 20:00:00 26 6 Nordeste 20 Oeste 0 -- -- 42
2018-08-31 19:00:00 27.8 5 Oeste 16 Oeste 0 -- -- 40
2018-08-31 18:00:00 28.7 3 Noroeste 24 Este 0 -- -- 40
2018-08-31 17:00:00 27.1 5 Sudeste 28 Nordeste 0 -- -- 45
2018-08-31 16:00:00 26.8 9 Este 30 Este 0 -- -- 45
2018-08-31 15:00:00 25.2 16 Este 29 Este 0 -- -- 48
2018-08-31 14:00:00 26.5 8 Norte 27 Este 0 -- -- 46
2018-08-31 13:00:00 24.8 5 Norte 23 Este 0 -- -- 51
2018-08-31 12:00:00 23.7 9 Sudeste 17 Este 0 -- -- 53
2018-08-31 11:00:00 21.6 3 Oeste 13 Este 0 -- -- 59
2018-08-31 10:00:00 20.3 5 Este 10 Este 0 -- -- 63
2018-08-31 09:00:00 18.8 2 Este 6 Este 0 -- -- 71
2018-08-31 08:00:00 17.2 0 Calma 5 Norte 0 -- -- 77
2018-08-31 07:00:00 17.5 2 Oeste 4 Sudoeste 0 -- -- 80
2018-08-31 06:00:00 18.4 0 Calma 5 Oeste 0 -- -- 77
2018-08-31 05:00:00 18.9 0 Calma 8 Oeste 0 -- -- 72
2018-08-31 04:00:00 19.5 3 Sudoeste 24 Oeste 0 -- -- 72
2018-08-31 03:00:00 20 16 Oeste 27 Oeste 0 -- -- 63
2018-08-31 02:00:00 20.9 10 Noroeste 23 Noroeste 0 -- -- 65
2018-08-31 01:00:00 21.3 0 Calma 6 Sur 0 -- -- 79
2018-08-31 00:00:00 22 2 Sudeste 9 Nordeste 0 -- -- 74
2018-08-30 23:00:00 22.5 4 Norte 8 Noroeste 0 -- -- 74
2018-08-30 22:00:00 22.6 4 Este 8 Este 0 -- -- 74
2018-08-30 21:00:00 23.5 3 Este 9 Sudoeste 0 -- -- 71
2018-08-30 20:00:00 24.8 6 Sur 13 Sudeste 0 -- -- 64
2018-08-30 19:00:00 25.1 11 Este 30 Este 0 -- -- 60
2018-08-30 18:00:00 27.4 9 Nordeste 34 Nordeste 0 -- -- 45
2018-08-30 17:00:00 29.1 11 Este 33 Este 0 -- -- 42
2018-08-30 16:00:00 28.7 9 Este 36 Este 0 -- -- 42
2018-08-30 15:00:00 28.5 15 Este 30 Este 0 -- -- 42
2018-08-30 14:00:00 27.6 7 Norte 19 Este 0 -- -- 45
2018-08-30 13:00:00 25.6 6 Este 20 Este 0 -- -- 49
2018-08-30 12:00:00 23.8 5 Este 12 Este 0 -- -- 52
2018-08-30 11:00:00 21.7 5 Este 11 Sudeste 0 -- -- 60
2018-08-30 10:00:00 19.6 4 Sur 6 Sur 0 -- -- 68
2018-08-30 09:00:00 17.7 4 Este 8 Este 0 -- -- 78
2018-08-30 08:00:00 16 4 Oeste 9 Oeste 0 -- -- 83
2018-08-30 07:00:00 17 4 Oeste 20 Oeste 0 -- -- 76
2018-08-30 06:00:00 18.2 4 Oeste 23 Oeste 0 -- -- 71
2018-08-30 05:00:00 17.9 3 Noroeste 21 Oeste 0 -- -- 76
2018-08-30 04:00:00 19.3 12 Oeste 26 Noroeste 0 -- -- 67
2018-08-30 03:00:00 19.6 17 Oeste 20 Oeste 0 -- -- 68
2018-08-30 02:00:00 20.2 11 Oeste 20 Oeste 0 -- -- 65
2018-08-30 01:00:00 21.1 14 Oeste 22 Oeste 0 -- -- 62
2018-08-30 00:00:00 22 6 Noroeste 18 Noroeste 0 -- -- 61
2018-08-29 23:00:00 22.9 7 Noroeste 22 Oeste 0 -- -- 58
2018-08-29 22:00:00 23.5 4 Este 8 Sur 0 -- -- 65
2018-08-29 21:00:00 24.2 2 Sudoeste 6 Sudeste 0 -- -- 63
2018-08-29 20:00:00 25.7 3 Sur 13 Sudoeste 0 -- -- 60
2018-08-29 19:00:00 25.6 6 Sur 13 Sudeste 0 -- -- 61
2018-08-29 18:00:00 25.7 8 Este 12 Este 0 -- -- 57
2018-08-29 17:00:00 26 4 Norte 26 Este 0 -- -- 49
2018-08-29 16:00:00 28.3 17 Este 30 Sudeste 0 -- -- 44
2018-08-29 15:00:00 26.9 10 Este 27 Este 0 -- -- 48
2018-08-29 14:00:00 27.2 16 Este 33 Este 0 -- -- 50
2018-08-29 13:00:00 26 8 Nordeste 22 Este 0 -- -- 52
2018-08-29 12:00:00 24.9 4 Nordeste 13 Este 0 -- -- 55
2018-08-29 11:00:00 23.4 5 Sudeste 13 Sudeste 0 -- -- 59
2018-08-29 10:00:00 20.9 0 Calma 6 Sur 0 -- -- 62
2018-08-29 09:00:00 19.2 0 Calma 8 Norte 0 -- -- 67
2018-08-29 08:00:00 18.6 4 Este 12 Nordeste 0 -- -- 67
2018-08-29 07:00:00 18.9 5 Oeste 9 Sudeste 0 -- -- 62
2018-08-29 06:00:00 17.6 4 Este 10 Este 0 -- -- 74
2018-08-29 05:00:00 19 4 Sudoeste 10 Sur 0 -- -- 61
2018-08-29 04:00:00 18.7 4 Sur 22 Sudoeste 0 -- -- 64
2018-08-29 03:00:00 17.5 8 Sur 29 Este 0 -- -- 76
2018-08-29 02:00:00 19.1 27 Oeste 46 Oeste 0.8 -- -- 67
2018-08-29 01:00:00 19.2 28 Oeste 68 Oeste 4.2 -- -- 64
2018-08-29 00:00:00 22.8 6 Nordeste 27 Sudoeste 0 -- -- 60
2018-08-28 23:00:00 22.5 5 Sudeste 29 Oeste 0 -- -- 60
2018-08-28 22:00:00 23.4 21 Oeste 53 Oeste 0.2 -- -- 59
2018-08-28 21:00:00 27.3 14 Sur 39 Sudoeste 0 -- -- 41
2018-08-28 20:00:00 27.3 23 Sudoeste 42 Sudoeste 0 -- -- 42
2018-08-28 19:00:00 27.1 13 Sudeste 28 Sudeste 0 -- -- 51
2018-08-28 18:00:00 26.9 12 Este 23 Sudeste 0 -- -- 59
2018-08-28 17:00:00 26.9 18 Este 33 Este 0 -- -- 62
2018-08-28 16:00:00 29.5 14 Este 26 Este 0 -- -- 54
2018-08-28 15:00:00 31.5 8 Norte 27 Este 0 -- -- 40
2018-08-28 14:00:00 31.9 10 Nordeste 28 Este 0 -- -- 40
2018-08-28 13:00:00 32.4 11 Norte 22 Nordeste 0 -- -- 38
2018-08-28 12:00:00 31.8 7 Nordeste 17 Norte 0 -- -- 38
2018-08-28 11:00:00 29.1 6 Sur 13 Oeste 0 -- -- 39
2018-08-28 10:00:00 23.8 4 Oeste 8 Oeste 0 -- -- 53
2018-08-28 09:00:00 21.1 0 Calma 13 Este 0 -- -- 67
2018-08-28 08:00:00 20.3 6 Este 10 Sudeste 0 -- -- 71
2018-08-28 07:00:00 20.5 4 Sur 10 Sudeste 0 -- -- 70
2018-08-28 06:00:00 21.1 4 Sudeste 7 Sudoeste 0 -- -- 74
2018-08-28 05:00:00 21.3 6 Sudeste 12 Sudeste 0 -- -- 75
2018-08-28 04:00:00 21.4 4 Sudeste 12 Sudoeste 0 -- -- 77
2018-08-28 03:00:00 21.9 5 Sur 12 Sur 0 -- -- 79
2018-08-28 02:00:00 22.3 5 Sudeste 12 Sur 0 -- -- 78
2018-08-28 01:00:00 22.9 7 Sur 12 Sur 0 -- -- 76
2018-08-28 00:00:00 23.5 6 Sudoeste 9 Sudoeste 0 -- -- 74
2018-08-27 23:00:00 24 4 Sudeste 7 Este 0 -- -- 72
2018-08-27 22:00:00 24.8 6 Sudeste 12 Sudeste 0 -- -- 69
2018-08-27 21:00:00 26.8 6 Sudeste 14 Sudeste 0 -- -- 61
2018-08-27 20:00:00 29.4 5 Sudeste 17 Nordeste 0 -- -- 52
2018-08-27 19:00:00 31.7 8 Este 25 Sudeste 0 -- -- 29
2018-08-27 18:00:00 32.3 12 Sudeste 29 Este 0 -- -- 30
2018-08-27 17:00:00 32.6 6 Este 23 Este 0 -- -- 30
2018-08-27 16:00:00 32.3 10 Este 26 Este 0 -- -- 31
2018-08-27 15:00:00 31.3 9 Este 32 Este 0 -- -- 33
2018-08-27 14:00:00 30.2 13 Nordeste 33 Nordeste 0 -- -- 36
2018-08-27 13:00:00 29.1 9 Norte 18 Este 0 -- -- 37
2018-08-27 12:00:00 27.1 7 Norte 17 Norte 0 -- -- 42
2018-08-27 11:00:00 25.5 4 Nordeste 11 Este 0 -- -- 43
2018-08-27 10:00:00 22.7 4 Este 8 Este 0 -- -- 55
2018-08-27 09:00:00 19.6 2 Este 6 Nordeste 0 -- -- 63
2018-08-27 08:00:00 17.2 3 Este 6 Este 0 -- -- 71
2018-08-27 07:00:00 17.7 0 Calma 8 Nordeste 0 -- -- 69
2018-08-27 06:00:00 17.8 4 Nordeste 8 Nordeste 0 -- -- 68
2018-08-27 05:00:00 18.2 5 Nordeste 8 Este 0 -- -- 68
2018-08-27 04:00:00 18.8 3 Este 7 Este 0 -- -- 64
2018-08-27 03:00:00 19.7 5 Nordeste 7 Este 0 -- -- 60
2018-08-27 02:00:00 20.1 3 Este 5 Este 0 -- -- 61
2018-08-27 01:00:00 20.9 2 Oeste 7 Sudeste 0 -- -- 60
2018-08-27 00:00:00 21.7 4 Este 6 Este 0 -- -- 54
2018-08-26 23:00:00 22.8 4 Sudoeste 5 Sudoeste 0 -- -- 50
2018-08-26 22:00:00 23.4 0 Calma 6 Nordeste 0 -- -- 44
2018-08-26 21:00:00 24.1 5 Norte 13 Norte 0 -- -- 43
2018-08-26 20:00:00 25.5 8 Nordeste 19 Nordeste 0 -- -- 40
2018-08-26 19:00:00 26.2 13 Este 28 Este 0 -- -- 39
2018-08-26 18:00:00 27.1 11 Nordeste 32 Este 0 -- -- 37
2018-08-26 17:00:00 27.5 18 Este 37 Este 0 -- -- 36
2018-08-26 16:00:00 27.8 9 Este 27 Este 0 -- -- 36
2018-08-26 15:00:00 27.5 12 Este 27 Este 0 -- -- 37
2018-08-26 14:00:00 26.9 12 Este 28 Este 0 -- -- 38
2018-08-26 13:00:00 24.6 6 Sudeste 12 Sur 0 -- -- 44
2018-08-26 12:00:00 22.2 5 Sudoeste 14 Nordeste 0 -- -- 48
2018-08-26 11:00:00 20.2 9 Este 15 Este 0 -- -- 50
2018-08-26 10:00:00 17.7 5 Este 11 Este 0 -- -- 57
2018-08-26 09:00:00 14.8 0 Calma 5 Sudeste 0 -- -- 66
2018-08-26 08:00:00 12.9 0 Calma 3 Este 0 -- -- 71
2018-08-26 07:00:00 13.4 0 Calma 4 Sudeste 0 -- -- 69
2018-08-26 06:00:00 13.5 3 Sur 6 Sur 0 -- -- 68
2018-08-26 05:00:00 14.1 3 Este 6 Este 0 -- -- 66
2018-08-26 04:00:00 14.9 0 Calma 16 Oeste 0 -- -- 63
2018-08-26 03:00:00 15.7 11 Oeste 24 Oeste 0 -- -- 61
2018-08-26 02:00:00 15.9 22 Oeste 43 Oeste 0 -- -- 60
2018-08-26 01:00:00 16.4 21 Oeste 44 Oeste 0 -- -- 57
2018-08-26 00:00:00 17.3 20 Oeste 36 Oeste 0 -- -- 56
2018-08-25 23:00:00 18.6 16 Noroeste 32 Noroeste 0 -- -- 53
2018-08-25 22:00:00 19.9 6 Sur 20 Este 0 -- -- 50
2018-08-25 21:00:00 21.1 4 Sudoeste 15 Sur 0 -- -- 46
2018-08-25 20:00:00 22.9 6 Sudeste 18 Este 0 -- -- 43
2018-08-25 19:00:00 24.3 10 Este 28 Sudeste 0 -- -- 38
2018-08-25 18:00:00 24.4 10 Sudeste 31 Este 0 -- -- 37
2018-08-25 17:00:00 25.3 14 Este 33 Este 0 -- -- 35
2018-08-25 16:00:00 25.5 20 Este 36 Este 0 -- -- 36
2018-08-25 15:00:00 26 17 Sudeste 29 Este 0 -- -- 37
2018-08-25 14:00:00 24.6 10 Este 32 Oeste 0 -- -- 40
2018-08-25 13:00:00 23.3 5 Sudeste 21 Noroeste 0 -- -- 44
2018-08-25 12:00:00 20.8 8 Norte 22 Noroeste 0 -- -- 51
2018-08-25 11:00:00 19.2 5 Sudoeste 28 Oeste 0 -- -- 56
2018-08-25 10:00:00 16.6 10 Oeste 31 Oeste 0 -- -- 63
2018-08-25 09:00:00 14.9 14 Noroeste 31 Oeste 0 -- -- 69
2018-08-25 08:00:00 13.9 16 Oeste 26 Oeste 0 -- -- 75
2018-08-25 07:00:00 14.1 8 Sudoeste 18 Oeste 0 -- -- 76
2018-08-25 06:00:00 14.4 2 Sudoeste 11 Oeste 0 -- -- 73
2018-08-25 05:00:00 15.4 12 Oeste 27 Oeste 0 -- -- 71
2018-08-25 04:00:00 15.8 9 Oeste 21 Oeste 0 -- -- 68
2018-08-25 03:00:00 16.5 8 Oeste 28 Oeste 0 -- -- 65
2018-08-25 02:00:00 17.4 7 Este 37 Oeste 0 -- -- 62
2018-08-25 01:00:00 17.8 14 Oeste 42 Oeste 0 -- -- 60
2018-08-25 00:00:00 18.7 26 Oeste 51 Oeste 0 -- -- 61